Time;durP1;ratioP1;P1;durP2;ratioP2;P2;SDS_P1;SDS_P2;PMS_P1;PMS_P2;Temp;Humidity;BMP_temperature;BMP_pressure;BME280_temperature;BME280_humidity;BME280_pressure;Samples;Min_cycle;Max_cycle;Signal;HPM_P1;HPM_P2
2022/08/20 00:00:45;;;;;;;;;;;22.10;99.90;;;;;;5072812;28;19912;-86
2022/08/20 00:03:15;;;;;;;;;;;22.00;99.90;;;;;;5072758;28;19958;-86
2022/08/20 00:05:43;;;;;;;;;;;22.00;99.90;;;;;;5072519;28;19920;-86
2022/08/20 00:08:09;;;;;;;;;;;22.00;99.90;;;;;;5071467;28;20278;-86
2022/08/20 00:10:36;;;;;;;;;;;22.00;99.90;;;;;;5072488;28;19916;-86
2022/08/20 00:13:03;;;;;;;;;;;22.00;99.90;;;;;;5072569;28;20411;-86
2022/08/20 00:15:31;;;;;;;;;;;22.00;99.90;;;;;;5072423;28;20323;-86
2022/08/20 00:17:57;;;;;;;;;;;21.90;99.90;;;;;;5072370;28;20377;-86
2022/08/20 00:20:24;;;;;;;;;;;21.90;99.90;;;;;;5072762;28;19912;-86
2022/08/20 00:22:49;;;;;;;;;;;21.90;99.90;;;;;;5072667;28;19917;-86
2022/08/20 00:25:15;;;;;;;;;;;21.80;99.90;;;;;;5072191;28;19916;-86
2022/08/20 00:27:41;;;;;;;;;;;21.80;99.90;;;;;;5072151;28;19916;-86
2022/08/20 00:30:08;;;;;;;;;;;21.80;99.90;;;;;;5072607;28;19912;-86
2022/08/20 00:32:51;;;;;;;;;;;21.80;99.90;;;;;;5072607;28;20136;-86
2022/08/20 00:35:18;;;;;;;;;;;21.80;99.90;;;;;;5072182;28;19916;-86
2022/08/20 00:37:44;;;;;;;;;;;21.70;99.90;;;;;;5054277;28;19916;-86
2022/08/20 00:40:12;;;;;;;;;;;21.70;99.90;;;;;;5070503;28;20010;-86
2022/08/20 00:42:51;;;;;;;;;;;21.70;99.90;;;;;;5072304;28;19913;-86
2022/08/20 00:45:17;;;;;;;;;;;21.70;99.90;;;;;;5072066;28;20331;-86
2022/08/20 00:47:43;;;;;;;;;;;21.70;99.90;;;;;;5071878;28;19913;-86
2022/08/20 00:50:20;;;;;;;;;;;21.70;99.90;;;;;;5071842;28;20317;-86
2022/08/20 00:52:48;;;;;;;;;;;21.70;99.90;;;;;;5072023;28;20372;-86
2022/08/20 00:55:15;;;;;;;;;;;21.70;99.90;;;;;;5070287;28;20296;-86
2022/08/20 00:57:42;;;;;;;;;;;21.70;99.90;;;;;;5071594;28;19916;-86
2022/08/20 01:00:13;;;;;;;;;;;21.60;99.90;;;;;;5071727;28;20302;-86
2022/08/20 01:02:40;;;;;;;;;;;21.60;99.90;;;;;;5071767;28;19920;-86
2022/08/20 01:05:08;;;;;;;;;;;21.60;99.90;;;;;;5071606;28;19908;-86
2022/08/20 01:07:34;;;;;;;;;;;21.60;99.90;;;;;;5071365;28;20003;-86
2022/08/20 01:10:01;;;;;;;;;;;21.60;99.90;;;;;;5071377;28;20387;-86
2022/08/20 01:12:28;;;;;;;;;;;21.60;99.90;;;;;;5071634;28;19920;-86
2022/08/20 01:14:54;;;;;;;;;;;21.60;99.90;;;;;;5071477;28;19913;-86
2022/08/20 01:17:22;;;;;;;;;;;21.60;99.90;;;;;;5070770;28;19917;-86
2022/08/20 01:19:50;;;;;;;;;;;21.60;99.90;;;;;;5071364;28;20396;-86
2022/08/20 01:25:08;;;;;;;;;;;21.60;99.90;;;;;;5083561;22;20388;-80
2022/08/20 01:27:35;;;;;;;;;;;21.60;99.90;;;;;;5071172;28;20399;-82
2022/08/20 01:30:01;;;;;;;;;;;21.60;99.90;;;;;;5071250;28;19936;-81
2022/08/20 01:32:27;;;;;;;;;;;21.60;99.90;;;;;;5070011;28;20274;-80
2022/08/20 01:34:53;;;;;;;;;;;21.60;99.90;;;;;;5071407;28;19923;-80
2022/08/20 01:37:18;;;;;;;;;;;21.60;99.90;;;;;;5070965;28;19917;-81
2022/08/20 01:39:44;;;;;;;;;;;21.60;99.90;;;;;;5070919;28;19954;-81
2022/08/20 01:42:11;;;;;;;;;;;21.60;99.90;;;;;;5071290;28;19967;-80
2022/08/20 01:44:38;;;;;;;;;;;21.50;99.90;;;;;;5071143;28;19981;-81
2022/08/20 01:47:15;;;;;;;;;;;21.60;99.90;;;;;;5070870;28;20003;-81
2022/08/20 01:49:43;;;;;;;;;;;21.50;99.90;;;;;;5070892;28;19990;-81
2022/08/20 01:52:12;;;;;;;;;;;21.50;99.90;;;;;;5071435;28;20212;-81
2022/08/20 01:54:38;;;;;;;;;;;21.50;99.90;;;;;;5070986;28;19916;-81
2022/08/20 01:57:03;;;;;;;;;;;21.50;99.90;;;;;;5070735;28;20392;-81
2022/08/20 01:59:29;;;;;;;;;;;21.50;99.90;;;;;;5070871;28;20365;-81
2022/08/20 02:01:55;;;;;;;;;;;21.50;99.90;;;;;;5070900;28;19924;-80
2022/08/20 02:04:21;;;;;;;;;;;21.50;99.90;;;;;;5070909;28;19965;-80
2022/08/20 02:06:49;;;;;;;;;;;21.50;99.90;;;;;;5070824;28;19916;-80
2022/08/20 02:09:15;;;;;;;;;;;21.50;99.90;;;;;;5070889;28;19938;-80
2022/08/20 02:11:40;;;;;;;;;;;21.50;99.90;;;;;;5071429;28;19912;-80
2022/08/20 02:14:08;;;;;;;;;;;21.50;99.90;;;;;;5070785;28;19919;-81
2022/08/20 02:16:35;;;;;;;;;;;21.50;99.90;;;;;;5070392;28;19924;-80
2022/08/20 02:19:08;;;;;;;;;;;21.50;99.90;;;;;;5070949;28;19912;-80
2022/08/20 02:21:36;;;;;;;;;;;21.50;99.90;;;;;;5070793;28;20411;-80
2022/08/20 02:24:02;;;;;;;;;;;21.50;99.90;;;;;;5070577;28;19912;-80
2022/08/20 02:26:28;;;;;;;;;;;21.50;99.90;;;;;;5070600;28;19923;-80
2022/08/20 02:28:54;;;;;;;;;;;21.50;99.90;;;;;;5071521;28;19913;-80
2022/08/20 02:31:20;;;;;;;;;;;21.50;99.90;;;;;;5075036;28;19913;-80
2022/08/20 02:33:47;;;;;;;;;;;21.50;99.90;;;;;;5074632;28;19921;-80
2022/08/20 02:36:13;;;;;;;;;;;21.50;99.90;;;;;;5073084;28;19958;-80
2022/08/20 02:38:39;;;;;;;;;;;21.50;99.90;;;;;;5073076;28;20266;-80
2022/08/20 02:41:05;;;;;;;;;;;21.50;99.90;;;;;;5074319;28;19956;-80
2022/08/20 02:43:31;;;;;;;;;;;21.50;99.90;;;;;;5072980;28;20339;-80
2022/08/20 02:45:58;;;;;;;;;;;21.50;99.90;;;;;;5074028;28;19912;-80
2022/08/20 02:48:24;;;;;;;;;;;21.50;99.90;;;;;;5074268;28;19977;-80
2022/08/20 02:50:55;;;;;;;;;;;21.50;99.90;;;;;;5074020;28;19989;-80
2022/08/20 02:53:21;;;;;;;;;;;21.50;99.90;;;;;;5073031;28;20485;-80
2022/08/20 02:55:47;;;;;;;;;;;21.50;99.90;;;;;;5073837;28;19932;-80
2022/08/20 02:58:13;;;;;;;;;;;21.50;99.90;;;;;;5073916;28;20284;-81
2022/08/20 03:00:39;;;;;;;;;;;21.50;99.90;;;;;;5073748;28;19920;-80
2022/08/20 03:03:08;;;;;;;;;;;21.50;99.90;;;;;;5074065;28;19913;-80
2022/08/20 03:05:34;;;;;;;;;;;21.50;99.90;;;;;;5074046;28;19924;-80
2022/08/20 03:07:59;;;;;;;;;;;21.50;99.90;;;;;;5073831;28;20087;-80
2022/08/20 03:10:26;;;;;;;;;;;21.50;99.90;;;;;;5073579;28;19912;-80
2022/08/20 03:12:52;;;;;;;;;;;21.50;99.90;;;;;;5073883;28;19912;-80
2022/08/20 03:15:19;;;;;;;;;;;21.50;99.90;;;;;;5072743;28;19923;-80
2022/08/20 03:17:44;;;;;;;;;;;21.40;99.90;;;;;;5073468;28;20391;-80
2022/08/20 03:20:10;;;;;;;;;;;21.50;99.90;;;;;;5073499;28;19909;-79
2022/08/20 03:22:36;;;;;;;;;;;21.50;99.90;;;;;;5073640;28;19917;-80
2022/08/20 03:25:02;;;;;;;;;;;21.50;99.90;;;;;;5073307;28;19956;-80
2022/08/20 03:27:27;;;;;;;;;;;21.50;99.90;;;;;;5073255;28;19912;-80
2022/08/20 03:29:53;;;;;;;;;;;21.50;99.90;;;;;;5073515;28;19923;-80
2022/08/20 03:32:18;;;;;;;;;;;21.40;99.90;;;;;;5073572;28;19966;-80
2022/08/20 03:34:44;;;;;;;;;;;21.40;99.90;;;;;;5073515;28;19912;-80
2022/08/20 03:37:10;;;;;;;;;;;21.40;99.90;;;;;;5073121;28;19917;-80
2022/08/20 03:39:36;;;;;;;;;;;21.40;99.90;;;;;;5071429;28;19952;-80
2022/08/20 03:42:02;;;;;;;;;;;21.40;99.90;;;;;;5073558;28;19964;-80
2022/08/20 03:44:28;;;;;;;;;;;21.30;99.90;;;;;;5073106;28;19956;-80
2022/08/20 03:46:54;;;;;;;;;;;21.40;99.90;;;;;;5073085;28;20010;-80
2022/08/20 03:49:19;;;;;;;;;;;21.30;99.90;;;;;;5073033;28;19912;-80
2022/08/20 03:51:45;;;;;;;;;;;21.30;99.90;;;;;;5073046;28;19913;-80
2022/08/20 03:54:10;;;;;;;;;;;21.30;99.90;;;;;;5073142;28;20196;-80
2022/08/20 03:56:36;;;;;;;;;;;21.30;99.90;;;;;;5072802;28;20349;-81
2022/08/20 03:59:02;;;;;;;;;;;21.20;99.90;;;;;;5072806;28;19999;-80
2022/08/20 04:01:28;;;;;;;;;;;21.30;99.90;;;;;;5072887;28;20055;-81
2022/08/20 04:03:54;;;;;;;;;;;21.20;99.90;;;;;;5072861;28;19924;-81
2022/08/20 04:06:19;;;;;;;;;;;21.30;99.90;;;;;;5072649;28;19912;-81
2022/08/20 04:08:45;;;;;;;;;;;21.30;99.90;;;;;;5072539;28;19966;-81
2022/08/20 04:11:11;;;;;;;;;;;21.40;99.90;;;;;;5072661;28;20016;-81
2022/08/20 04:13:37;;;;;;;;;;;21.40;99.90;;;;;;5072884;28;19912;-81
2022/08/20 04:16:07;;;;;;;;;;;21.40;99.90;;;;;;5072326;28;20266;-81
2022/08/20 04:18:35;;;;;;;;;;;21.40;99.90;;;;;;5072340;28;19958;-81
2022/08/20 04:21:02;;;;;;;;;;;21.40;99.90;;;;;;5071223;28;19912;-81
2022/08/20 04:23:28;;;;;;;;;;;21.30;99.90;;;;;;5072411;28;19994;-81
2022/08/20 04:25:54;;;;;;;;;;;21.40;99.90;;;;;;5072432;28;19916;-81
2022/08/20 04:28:27;;;;;;;;;;;21.40;99.90;;;;;;5072339;28;19917;-81
2022/08/20 04:30:54;;;;;;;;;;;21.30;99.90;;;;;;5072271;28;20023;-81
2022/08/20 04:33:20;;;;;;;;;;;21.30;99.90;;;;;;5072382;28;19913;-81
2022/08/20 04:35:45;;;;;;;;;;;21.30;99.90;;;;;;5071915;28;20289;-81
2022/08/20 04:38:13;;;;;;;;;;;21.30;99.90;;;;;;5072279;28;20382;-81
2022/08/20 04:40:57;;;;;;;;;;;21.30;99.90;;;;;;5072093;28;19921;-81
2022/08/20 04:43:24;;;;;;;;;;;21.40;99.90;;;;;;5072143;28;19913;-81
2022/08/20 04:45:50;;;;;;;;;;;21.30;99.90;;;;;;5071864;28;19991;-81
2022/08/20 04:48:16;;;;;;;;;;;21.30;99.90;;;;;;5071959;28;19948;-81
2022/08/20 04:50:43;;;;;;;;;;;21.30;99.90;;;;;;5071523;28;19913;-81
2022/08/20 04:53:10;;;;;;;;;;;21.30;99.90;;;;;;5071746;28;20331;-81
2022/08/20 04:55:38;;;;;;;;;;;21.40;99.90;;;;;;5071675;28;20061;-81
2022/08/20 04:58:10;;;;;;;;;;;21.30;99.90;;;;;;5071768;28;19921;-81
2022/08/20 05:00:37;;;;;;;;;;;21.30;99.90;;;;;;5071534;28;19920;-81
2022/08/20 05:03:03;;;;;;;;;;;21.30;99.90;;;;;;5071709;28;19916;-81
2022/08/20 05:05:29;;;;;;;;;;;21.30;99.90;;;;;;5071583;28;20380;-81
2022/08/20 05:07:56;;;;;;;;;;;21.30;99.90;;;;;;5071541;28;19908;-81
2022/08/20 05:10:22;;;;;;;;;;;21.30;99.90;;;;;;5070152;28;20388;-81
2022/08/20 05:12:48;;;;;;;;;;;21.30;99.90;;;;;;5071561;28;19912;-81
2022/08/20 05:15:14;;;;;;;;;;;21.40;99.90;;;;;;5071533;28;19911;-81
2022/08/20 05:17:40;;;;;;;;;;;21.30;99.90;;;;;;5071118;28;19919;-81
2022/08/20 05:20:07;;;;;;;;;;;21.40;99.90;;;;;;5071165;28;19927;-81
2022/08/20 05:22:33;;;;;;;;;;;21.40;99.90;;;;;;5071453;28;19912;-81
2022/08/20 05:25:00;;;;;;;;;;;21.40;99.90;;;;;;5071247;28;19994;-81
2022/08/20 05:27:26;;;;;;;;;;;21.30;99.90;;;;;;5071258;28;19969;-81
2022/08/20 05:29:53;;;;;;;;;;;21.30;99.90;;;;;;5071587;28;19908;-81
2022/08/20 05:32:19;;;;;;;;;;;21.30;99.90;;;;;;5071292;28;19912;-81
2022/08/20 05:34:45;;;;;;;;;;;21.30;99.90;;;;;;5071289;28;19958;-81
2022/08/20 05:37:11;;;;;;;;;;;21.30;99.90;;;;;;5071004;28;20369;-81
2022/08/20 05:39:36;;;;;;;;;;;21.30;99.90;;;;;;5071009;28;19912;-81
2022/08/20 05:42:02;;;;;;;;;;;21.30;99.90;;;;;;5071170;28;19970;-81
2022/08/20 05:44:27;;;;;;;;;;;21.30;99.90;;;;;;5071137;28;19908;-81
2022/08/20 05:46:53;;;;;;;;;;;21.30;99.90;;;;;;5070928;28;19917;-81
2022/08/20 05:49:20;;;;;;;;;;;21.30;99.90;;;;;;5070908;28;19910;-81
2022/08/20 05:51:46;;;;;;;;;;;21.30;99.90;;;;;;5071093;28;19908;-81
2022/08/20 05:54:12;;;;;;;;;;;21.30;99.90;;;;;;5071109;28;19912;-81
2022/08/20 05:56:38;;;;;;;;;;;21.30;99.90;;;;;;5070796;28;20011;-81
2022/08/20 05:59:05;;;;;;;;;;;21.30;99.90;;;;;;5070829;28;19936;-81
2022/08/20 06:01:32;;;;;;;;;;;21.40;99.90;;;;;;5070890;28;19913;-81
2022/08/20 06:06:41;;;;;;;;;;;21.30;99.90;;;;;;5074980;28;20322;-81
2022/08/20 06:09:07;;;;;;;;;;;21.30;99.90;;;;;;5074989;28;19908;-81
2022/08/20 06:11:33;;;;;;;;;;;21.30;99.90;;;;;;5074929;28;20429;-81
2022/08/20 06:13:58;;;;;;;;;;;21.30;99.90;;;;;;5074828;28;20301;-81
2022/08/20 06:16:24;;;;;;;;;;;21.30;99.90;;;;;;5074624;28;19904;-81
2022/08/20 06:18:50;;;;;;;;;;;21.30;99.90;;;;;;5074628;28;19908;-81
2022/08/20 06:21:15;;;;;;;;;;;21.30;99.90;;;;;;5074804;28;20369;-81
2022/08/20 06:23:41;;;;;;;;;;;21.30;99.90;;;;;;5074829;28;19958;-81
2022/08/20 06:26:08;;;;;;;;;;;21.30;99.90;;;;;;5074378;28;20361;-81
2022/08/20 06:28:36;;;;;;;;;;;21.30;99.90;;;;;;5074422;28;19912;-81
2022/08/20 06:31:02;;;;;;;;;;;21.30;99.90;;;;;;5074881;28;19958;-81
2022/08/20 06:33:27;;;;;;;;;;;21.30;99.90;;;;;;5074613;28;19908;-81
2022/08/20 06:35:54;;;;;;;;;;;21.40;99.90;;;;;;5074361;28;20391;-81
2022/08/20 06:38:20;;;;;;;;;;;21.30;99.90;;;;;;5074376;28;19919;-81
2022/08/20 06:40:45;;;;;;;;;;;21.30;99.90;;;;;;5074211;28;19908;-81
2022/08/20 06:43:11;;;;;;;;;;;21.40;99.90;;;;;;5074771;28;19908;-81
2022/08/20 06:45:37;;;;;;;;;;;21.40;99.90;;;;;;5074052;28;19909;-81
2022/08/20 06:48:08;;;;;;;;;;;21.40;99.90;;;;;;5074251;28;19986;-81
2022/08/20 06:50:38;;;;;;;;;;;21.40;99.90;;;;;;5074079;28;19912;-81
2022/08/20 06:53:07;;;;;;;;;;;21.40;99.90;;;;;;5074261;28;19912;-81
2022/08/20 06:55:33;;;;;;;;;;;21.40;99.90;;;;;;5074468;28;19913;-80
2022/08/20 06:58:01;;;;;;;;;;;21.40;99.90;;;;;;5073892;28;20057;-81
2022/08/20 07:00:27;;;;;;;;;;;21.40;99.90;;;;;;5073831;28;19909;-81
2022/08/20 07:02:53;;;;;;;;;;;21.30;99.90;;;;;;5074002;28;20276;-81
2022/08/20 07:05:19;;;;;;;;;;;21.30;99.90;;;;;;5073968;28;19908;-81
2022/08/20 07:07:46;;;;;;;;;;;21.30;99.90;;;;;;5073843;28;20003;-81
2022/08/20 07:10:13;;;;;;;;;;;21.30;99.90;;;;;;5072326;28;19958;-81
2022/08/20 07:12:38;;;;;;;;;;;21.20;99.90;;;;;;5074071;28;19973;-81
2022/08/20 07:15:05;;;;;;;;;;;21.30;99.90;;;;;;5073232;28;20368;-81
2022/08/20 07:17:30;;;;;;;;;;;21.30;99.90;;;;;;5073502;28;19955;-81
2022/08/20 07:19:56;;;;;;;;;;;21.30;99.90;;;;;;5073514;28;19948;-81
2022/08/20 07:22:23;;;;;;;;;;;21.30;99.90;;;;;;5072551;28;19908;-81
2022/08/20 07:24:49;;;;;;;;;;;21.30;99.90;;;;;;5101236;22;20976;-72
2022/08/20 07:27:19;;;;;;;;;;;21.30;99.90;;;;;;5073869;28;20360;-72
2022/08/20 07:32:35;;;;;;;;;;;21.30;99.90;;;;;;5074387;28;20313;-71
2022/08/20 07:35:03;;;;;;;;;;;21.30;99.90;;;;;;5073900;28;19908;-71
2022/08/20 07:37:28;;;;;;;;;;;21.30;99.90;;;;;;5073732;28;19916;-71
2022/08/20 07:39:54;;;;;;;;;;;21.30;99.90;;;;;;5073447;28;19908;-71
2022/08/20 07:42:20;;;;;;;;;;;21.30;99.90;;;;;;5073783;28;19908;-71
2022/08/20 07:44:46;;;;;;;;;;;21.40;99.90;;;;;;5073553;28;19912;-71
2022/08/20 07:47:12;;;;;;;;;;;21.40;99.90;;;;;;5073287;28;19915;-71
2022/08/20 07:49:38;;;;;;;;;;;21.40;99.90;;;;;;5073350;28;19904;-71
2022/08/20 07:52:04;;;;;;;;;;;21.50;99.90;;;;;;5073476;28;20440;-71
2022/08/20 07:54:30;;;;;;;;;;;21.50;99.90;;;;;;5073758;28;19909;-72
2022/08/20 07:57:01;;;;;;;;;;;21.60;99.90;;;;;;5073426;28;20363;-72
2022/08/20 07:59:28;;;;;;;;;;;21.50;99.90;;;;;;5073101;28;19920;-72
2022/08/20 08:01:53;;;;;;;;;;;21.50;99.90;;;;;;5073330;28;20385;-72
2022/08/20 08:04:19;;;;;;;;;;;21.50;99.90;;;;;;5073259;28;19912;-71
2022/08/20 08:06:45;;;;;;;;;;;21.40;99.90;;;;;;5073157;28;20062;-71
2022/08/20 08:09:12;;;;;;;;;;;21.40;99.90;;;;;;5071590;28;19974;-70
2022/08/20 08:11:40;;;;;;;;;;;21.40;99.90;;;;;;5072992;28;20003;-71
2022/08/20 08:14:08;;;;;;;;;;;21.30;99.90;;;;;;5073012;28;19908;-71
2022/08/20 08:16:35;;;;;;;;;;;21.30;99.90;;;;;;5072684;28;20090;-71
2022/08/20 08:19:02;;;;;;;;;;;21.30;99.90;;;;;;5072576;28;20007;-71
2022/08/20 08:21:29;;;;;;;;;;;21.30;99.90;;;;;;5072922;28;19908;-71
2022/08/20 08:23:55;;;;;;;;;;;21.30;99.90;;;;;;5073069;28;19962;-71
2022/08/20 08:26:21;;;;;;;;;;;21.30;99.90;;;;;;5071561;28;19912;-71
2022/08/20 08:28:47;;;;;;;;;;;21.30;99.90;;;;;;5072458;28;20003;-71
2022/08/20 08:31:14;;;;;;;;;;;21.20;99.90;;;;;;5072666;28;19966;-71
2022/08/20 08:33:40;;;;;;;;;;;21.20;99.90;;;;;;5071244;28;19912;-71
2022/08/20 08:36:09;;;;;;;;;;;21.20;99.90;;;;;;5072650;28;19938;-71
2022/08/20 08:38:36;;;;;;;;;;;21.30;99.90;;;;;;5072417;28;19935;-71
2022/08/20 08:41:06;;;;;;;;;;;21.30;99.90;;;;;;5072148;28;19909;-71
2022/08/20 08:43:32;;;;;;;;;;;21.30;99.90;;;;;;5072426;28;20429;-71
2022/08/20 08:46:00;;;;;;;;;;;21.30;99.90;;;;;;5070851;28;19960;-71
2022/08/20 08:48:31;;;;;;;;;;;21.30;99.90;;;;;;5072429;28;19904;-72
2022/08/20 08:50:58;;;;;;;;;;;21.20;99.90;;;;;;5072238;28;19915;-71
2022/08/20 08:53:26;;;;;;;;;;;21.20;99.90;;;;;;5072198;28;19904;-72
2022/08/20 08:55:52;;;;;;;;;;;21.20;99.90;;;;;;5072180;28;19923;-71
2022/08/20 08:58:18;;;;;;;;;;;21.30;99.90;;;;;;5072484;28;19954;-71
2022/08/20 09:00:46;;;;;;;;;;;21.40;99.90;;;;;;5071831;28;20584;-71
2022/08/20 09:03:18;;;;;;;;;;;21.40;99.90;;;;;;5071992;28;19915;-71
2022/08/20 09:05:54;;;;;;;;;;;21.50;99.90;;;;;;5070693;28;19920;-71
2022/08/20 09:08:24;;;;;;;;;;;21.50;99.90;;;;;;5070757;28;19912;-71
2022/08/20 09:10:51;;;;;;;;;;;21.60;99.90;;;;;;5071622;28;19908;-71
2022/08/20 09:13:17;;;;;;;;;;;21.60;99.90;;;;;;5071786;28;19993;-71
2022/08/20 09:15:42;;;;;;;;;;;21.70;99.90;;;;;;5071898;28;19910;-71
2022/08/20 09:18:09;;;;;;;;;;;21.70;99.90;;;;;;5071859;28;20003;-71
2022/08/20 09:20:35;;;;;;;;;;;21.70;99.90;;;;;;5071946;28;20320;-70
2022/08/20 09:23:03;;;;;;;;;;;21.70;99.90;;;;;;5071785;28;19963;-71
2022/08/20 09:25:29;;;;;;;;;;;21.80;99.90;;;;;;5070562;28;20354;-72
2022/08/20 09:27:55;;;;;;;;;;;21.90;99.90;;;;;;5071751;28;19968;-72
2022/08/20 09:30:21;;;;;;;;;;;21.90;99.90;;;;;;5071584;28;20357;-72
2022/08/20 09:32:47;;;;;;;;;;;21.90;99.90;;;;;;5071985;28;20291;-72
2022/08/20 09:35:13;;;;;;;;;;;21.90;99.90;;;;;;5071679;28;19908;-72
2022/08/20 09:37:38;;;;;;;;;;;21.90;99.90;;;;;;5071230;28;19912;-72
2022/08/20 09:40:06;;;;;;;;;;;22.00;99.90;;;;;;5071556;28;20205;-72
2022/08/20 09:42:32;;;;;;;;;;;21.90;99.90;;;;;;5071546;28;19912;-72
2022/08/20 09:44:59;;;;;;;;;;;22.00;99.90;;;;;;5071598;28;19952;-72
2022/08/20 09:47:25;;;;;;;;;;;22.00;99.90;;;;;;5071448;28;19912;-72
2022/08/20 09:49:52;;;;;;;;;;;22.00;99.90;;;;;;5070999;28;20276;-72
2022/08/20 09:52:44;;;;;;;;;;;22.00;99.90;;;;;;5071556;28;20344;-72
2022/08/20 09:55:22;;;;;;;;;;;21.90;99.90;;;;;;5068448;28;19913;-71
2022/08/20 09:57:48;;;;;;;;;;;21.90;99.90;;;;;;5071034;28;19969;-72
2022/08/20 10:00:15;;;;;;;;;;;21.80;99.90;;;;;;5071065;28;20335;-72
2022/08/20 10:02:42;;;;;;;;;;;21.80;99.90;;;;;;5071318;28;19915;-72
2022/08/20 10:05:08;;;;;;;;;;;21.90;99.90;;;;;;5071809;28;20003;-72
2022/08/20 10:07:36;;;;;;;;;;;21.90;99.90;;;;;;5071204;28;19912;-72
2022/08/20 10:10:02;;;;;;;;;;;21.90;99.90;;;;;;5071085;28;19912;-72
2022/08/20 10:12:28;;;;;;;;;;;21.90;99.90;;;;;;5070138;28;20281;-72
2022/08/20 10:14:54;;;;;;;;;;;21.90;99.90;;;;;;5071132;28;20459;-72
2022/08/20 10:17:20;;;;;;;;;;;22.00;99.90;;;;;;5071082;28;20273;-72
2022/08/20 10:19:46;;;;;;;;;;;22.00;99.90;;;;;;5070867;28;19920;-72
2022/08/20 10:22:12;;;;;;;;;;;22.00;99.90;;;;;;5071201;28;20334;-72
2022/08/20 10:24:38;;;;;;;;;;;22.00;99.90;;;;;;5070886;28;19935;-72
2022/08/20 10:27:04;;;;;;;;;;;22.10;99.90;;;;;;5070971;28;20376;-72
2022/08/20 10:29:30;;;;;;;;;;;22.10;99.90;;;;;;5070775;28;19912;-72
2022/08/20 10:31:56;;;;;;;;;;;22.10;99.90;;;;;;5069781;28;19913;-72
2022/08/20 10:34:23;;;;;;;;;;;22.20;99.90;;;;;;5070855;28;19999;-72
2022/08/20 10:36:50;;;;;;;;;;;22.10;99.90;;;;;;5071159;28;20002;-72
2022/08/20 10:39:16;;;;;;;;;;;22.10;99.90;;;;;;5071229;28;19920;-72
2022/08/20 10:41:41;;;;;;;;;;;22.10;99.90;;;;;;5071073;28;19913;-72
2022/08/20 10:44:07;;;;;;;;;;;22.10;99.90;;;;;;5069662;28;19913;-72
2022/08/20 10:46:33;;;;;;;;;;;22.10;99.90;;;;;;5069586;28;19938;-71
2022/08/20 10:48:59;;;;;;;;;;;22.10;99.90;;;;;;5070701;28;19917;-71
2022/08/20 10:51:25;;;;;;;;;;;22.20;99.90;;;;;;5074117;28;19934;-71
2022/08/20 10:53:51;;;;;;;;;;;22.30;99.90;;;;;;5074864;28;20364;-71
2022/08/20 10:56:16;;;;;;;;;;;22.30;99.90;;;;;;5074297;28;19967;-71
2022/08/20 10:58:42;;;;;;;;;;;22.40;99.90;;;;;;5074248;28;19916;-70
2022/08/20 11:01:08;;;;;;;;;;;22.40;99.90;;;;;;5074760;28;19997;-72
2022/08/20 11:03:34;;;;;;;;;;;22.30;99.90;;;;;;5074121;28;19912;-71
2022/08/20 11:06:00;;;;;;;;;;;22.30;99.90;;;;;;5074051;28;19962;-70
2022/08/20 11:08:26;;;;;;;;;;;22.30;99.90;;;;;;5074324;28;19913;-70
2022/08/20 11:10:52;;;;;;;;;;;22.40;99.90;;;;;;5073926;28;19919;-70
2022/08/20 11:13:18;;;;;;;;;;;22.40;99.90;;;;;;5074218;28;19912;-70
2022/08/20 11:15:44;;;;;;;;;;;22.40;99.90;;;;;;5074070;28;19920;-71
2022/08/20 11:18:11;;;;;;;;;;;22.40;99.90;;;;;;5073776;28;19920;-71
2022/08/20 11:20:37;;;;;;;;;;;22.50;99.90;;;;;;5073921;28;20302;-71
2022/08/20 11:23:03;;;;;;;;;;;22.50;99.90;;;;;;5073999;28;19920;-70
2022/08/20 11:25:29;;;;;;;;;;;22.60;99.90;;;;;;5074057;28;20152;-70
2022/08/20 11:27:55;;;;;;;;;;;22.60;99.90;;;;;;5073820;28;19912;-70
2022/08/20 11:30:26;;;;;;;;;;;22.60;99.90;;;;;;5073782;28;20007;-70
2022/08/20 11:32:52;;;;;;;;;;;22.70;99.90;;;;;;5073728;28;19970;-71
2022/08/20 11:35:20;;;;;;;;;;;22.70;99.90;;;;;;5073735;28;19912;-72
2022/08/20 11:37:46;;;;;;;;;;;22.70;99.90;;;;;;5073455;28;19931;-72
2022/08/20 11:40:12;;;;;;;;;;;22.60;99.90;;;;;;5073449;28;19919;-71
2022/08/20 11:42:38;;;;;;;;;;;22.70;99.90;;;;;;5073880;28;19912;-71
2022/08/20 11:45:05;;;;;;;;;;;22.70;99.90;;;;;;5073508;28;19912;-72
2022/08/20 11:47:32;;;;;;;;;;;22.70;99.90;;;;;;5073536;28;19916;-72
2022/08/20 11:49:59;;;;;;;;;;;22.70;99.90;;;;;;5073445;28;20336;-72
2022/08/20 11:52:25;;;;;;;;;;;22.70;99.90;;;;;;5073568;28;19935;-72
2022/08/20 11:54:51;;;;;;;;;;;22.70;99.90;;;;;;5073792;28;19955;-72
2022/08/20 11:57:21;;;;;;;;;;;22.80;99.90;;;;;;5073886;28;20361;-72
2022/08/20 11:59:48;;;;;;;;;;;22.80;99.90;;;;;;5073154;28;19950;-72
2022/08/20 12:02:14;;;;;;;;;;;22.90;99.90;;;;;;5073239;28;19912;-72
2022/08/20 12:04:39;;;;;;;;;;;23.00;99.90;;;;;;5073318;28;19913;-72
2022/08/20 12:07:11;;;;;;;;;;;23.00;99.50;;;;;;5073097;28;19999;-72
2022/08/20 12:09:37;;;;;;;;;;;23.10;99.60;;;;;;5072923;28;19913;-70
2022/08/20 12:12:03;;;;;;;;;;;23.20;99.20;;;;;;5073120;28;19920;-70
2022/08/20 12:14:29;;;;;;;;;;;23.20;99.30;;;;;;5072839;28;20387;-71
2022/08/20 12:16:55;;;;;;;;;;;23.20;99.10;;;;;;5072757;28;19978;-71
2022/08/20 12:19:20;;;;;;;;;;;23.30;99.20;;;;;;5072575;28;19920;-72
2022/08/20 12:21:46;;;;;;;;;;;23.30;99.20;;;;;;5072943;28;19913;-71
2022/08/20 12:24:12;;;;;;;;;;;23.30;99.20;;;;;;5072943;28;19916;-71
2022/08/20 12:26:37;;;;;;;;;;;23.30;98.90;;;;;;5072485;28;19951;-70
2022/08/20 12:29:03;;;;;;;;;;;23.40;98.70;;;;;;5072446;28;19918;-71
2022/08/20 12:31:29;;;;;;;;;;;23.40;98.70;;;;;;5072664;28;19962;-71
2022/08/20 12:33:55;;;;;;;;;;;23.40;98.50;;;;;;5054813;28;19916;-70
2022/08/20 12:36:20;;;;;;;;;;;23.40;98.70;;;;;;5072681;28;20004;-72
2022/08/20 12:38:46;;;;;;;;;;;23.40;98.10;;;;;;5072805;28;19916;-72
2022/08/20 12:41:12;;;;;;;;;;;23.40;98.20;;;;;;5071252;28;19966;-72
2022/08/20 12:43:38;;;;;;;;;;;23.40;98.10;;;;;;5072532;28;19944;-72
2022/08/20 12:46:04;;;;;;;;;;;23.50;98.00;;;;;;5072356;28;19913;-72
2022/08/20 12:48:29;;;;;;;;;;;23.50;97.80;;;;;;5072514;28;19947;-72
2022/08/20 12:50:55;;;;;;;;;;;23.40;97.60;;;;;;5072154;28;20011;-72
2022/08/20 12:53:21;;;;;;;;;;;23.40;97.20;;;;;;5072318;28;20288;-72
2022/08/20 12:55:47;;;;;;;;;;;23.40;97.40;;;;;;5072100;28;19985;-72
2022/08/20 12:58:13;;;;;;;;;;;23.30;97.10;;;;;;5072508;28;19916;-72
2022/08/20 13:00:43;;;;;;;;;;;23.30;97.20;;;;;;5072030;28;20295;-72
2022/08/20 13:03:10;;;;;;;;;;;23.30;97.30;;;;;;5072457;28;19981;-72
2022/08/20 13:05:36;;;;;;;;;;;23.30;97.20;;;;;;5072102;28;19917;-71
2022/08/20 13:08:06;;;;;;;;;;;23.30;96.50;;;;;;5071988;28;20292;-71
2022/08/20 13:10:33;;;;;;;;;;;23.20;96.40;;;;;;5071574;28;19947;-71
2022/08/20 13:13:02;;;;;;;;;;;23.20;96.10;;;;;;5071329;28;20003;-71
2022/08/20 13:15:29;;;;;;;;;;;23.20;96.20;;;;;;5071927;28;20289;-72
2022/08/20 13:17:57;;;;;;;;;;;23.20;96.10;;;;;;5071779;28;20276;-71
2022/08/20 13:20:25;;;;;;;;;;;23.20;96.20;;;;;;5071916;28;19920;-72
2022/08/20 13:22:55;;;;;;;;;;;23.20;95.70;;;;;;5071801;28;19912;-72
2022/08/20 13:25:21;;;;;;;;;;;23.10;95.40;;;;;;5088316;22;20114;-70
2022/08/20 13:27:47;;;;;;;;;;;23.10;95.00;;;;;;5091767;28;19920;-70
2022/08/20 13:30:15;;;;;;;;;;;23.10;95.10;;;;;;5090516;28;19923;-70
2022/08/20 13:32:41;;;;;;;;;;;23.10;95.20;;;;;;5090418;28;19912;-70
2022/08/20 13:35:07;;;;;;;;;;;23.00;95.30;;;;;;5091888;28;19918;-70
2022/08/20 13:37:33;;;;;;;;;;;23.00;95.20;;;;;;5090312;28;20015;-70
2022/08/20 13:39:59;;;;;;;;;;;23.00;95.40;;;;;;5091596;28;19965;-70
2022/08/20 13:42:26;;;;;;;;;;;23.00;95.30;;;;;;5091854;28;20288;-70
2022/08/20 13:44:52;;;;;;;;;;;23.00;95.00;;;;;;5091580;28;20314;-70
2022/08/20 13:47:19;;;;;;;;;;;23.00;94.70;;;;;;5091595;28;19912;-70
2022/08/20 13:49:46;;;;;;;;;;;23.00;94.60;;;;;;5091364;28;19999;-70
2022/08/20 13:52:12;;;;;;;;;;;23.00;94.00;;;;;;5091364;28;19912;-70
2022/08/20 13:54:38;;;;;;;;;;;23.10;93.50;;;;;;5091432;28;19912;-70
2022/08/20 13:57:11;;;;;;;;;;;23.20;93.40;;;;;;5091305;28;19916;-70
2022/08/20 13:59:38;;;;;;;;;;;23.20;93.20;;;;;;5091179;28;20007;-70
2022/08/20 14:02:04;;;;;;;;;;;23.30;92.80;;;;;;5091791;28;19912;-70
2022/08/20 14:04:29;;;;;;;;;;;23.30;93.20;;;;;;5090627;28;20312;-70
2022/08/20 14:06:55;;;;;;;;;;;23.30;93.30;;;;;;5091353;28;19912;-71
2022/08/20 14:09:21;;;;;;;;;;;23.30;93.10;;;;;;5091077;28;20604;-70
2022/08/20 14:11:47;;;;;;;;;;;23.40;93.10;;;;;;5091388;28;19912;-70
2022/08/20 14:14:13;;;;;;;;;;;23.40;92.50;;;;;;5090158;28;19912;-70
2022/08/20 14:16:39;;;;;;;;;;;23.50;92.10;;;;;;5091084;28;19912;-70
2022/08/20 14:19:05;;;;;;;;;;;23.60;91.70;;;;;;5091178;28;20024;-70
2022/08/20 14:21:30;;;;;;;;;;;23.70;91.50;;;;;;5091013;28;20368;-70